Norwegian Star — C6FR3 — position and weather

sailwx.info

Track history (hours):
 
Tides and Currents Weather Stations Pressure Air Temp Water Temp Dewpoint Dewpoint Depression Visibility Wind Speed Wind Dir Waves Ship Positions

Norwegian Star

Operator: Norwegian Cruise Line

Last reported at 2017-Jun-22 16:30 UTC. Time now 2017-Jun-22 16:38 UTC.
Position N 37°28' E 023°43'.

Type: Passenger vessel. MMSI: 311082000.

Date/timePositionNaut miles runAvg speedWind from/ knotsBaromVisibWave heightAir tempDewpointWater temp
2017-Jun-22 16:30N 37°28' E 023°43'816.0
2017-Jun-22 16:00N 37°36' E 023°43'816.4
2017-Jun-22 15:30N 37°44' E 023°40'816.0
2017-Jun-22 15:00N 37°51' E 023°36'5 9.8
2017-Jun-22 14:30N 37°56' E 023°37'1 0.7
2017-Jun-22 13:28N 37°56' E 023°38'0 0.0
2017-Jun-22 12:58N 37°56' E 023°38'0 0.0
2017-Jun-22 12:28N 37°56' E 023°38'0 0.0
2017-Jun-22 11:58N 37°56' E 023°38'0 0.0
2017-Jun-22 11:28N 37°56' E 023°38'0 0.0
2017-Jun-22 10:58N 37°56' E 023°38'0 0.0
2017-Jun-22 10:28N 37°56' E 023°38'0 0.0
2017-Jun-22 09:58N 37°56' E 023°38'0 0.0
2017-Jun-22 09:28N 37°56' E 023°38'0 0.0
2017-Jun-22 08:58N 37°56' E 023°38'0 0.0
2017-Jun-22 08:28N 37°56' E 023°38'0 0.0
2017-Jun-22 07:58N 37°56' E 023°38'0 0.0
2017-Jun-22 07:25N 37°56' E 023°38'0 0.0
2017-Jun-22 06:58N 37°56' E 023°38'0 0.0
2017-Jun-22 06:28N 37°56' E 023°38'0 0.0
2017-Jun-22 05:58N 37°56' E 023°38'0 0.0
2017-Jun-22 05:25N 37°56' E 023°38'0 0.0
2017-Jun-22 04:58N 37°56' E 023°38'0 0.0
2017-Jun-22 04:28N 37°56' E 023°38'0 0.0
2017-Jun-22 03:59N 37°56' E 023°38'1 3.0
2017-Jun-22 03:30N 37°56' E 023°37'1 2.1
2017-Jun-22 03:00N 37°54' E 023°37'714.0
2017-Jun-22 02:30N 37°48' E 023°40'918.6
2017-Jun-22 02:00N 37°40' E 023°45'1019.6
2017-Jun-22 01:30N 37°30' E 023°44'1019.2
2017-Jun-22 01:00N 37°20' E 023°42'918.8
2017-Jun-22 00:30N 37°11' E 023°39'1119.1
2017-Jun-21 23:55N 37°01' E 023°34'1119.0
2017-Jun-21 23:20N 36°50' E 023°30'10016.3
2017-Jun-21 17:11N 36°44' E 021°25'421.0
2017-Jun-21 17:00N 36°47' E 021°23'1620.8
2017-Jun-21 16:14N 37°02' E 021°17'621.2
2017-Jun-21 15:58N 37°08' E 021°17'1010.4
2017-Jun-21 15:00N 37°18' E 021°18'24 6.0 030 / 221014.0 5.4 24.4 25.0
2017-Jun-21 11:00N 37°42' E 021°18'13311.4 280 1013.027.0 25.0 20.0
2017-Jun-20 23:15N 39°21' E 019°24'521.2
2017-Jun-20 23:00N 39°26' E 019°21'4321.6
2017-Jun-20 21:00N 40°06' E 019°00'9420.4 270 / 61012.0 22.0
2017-Jun-20 16:22N 41°39' E 018°42'1120.5
2017-Jun-20 15:51N 41°50' E 018°41'1112.5
2017-Jun-20 15:00N 42°00' E 018°36'190 5.1 260 / 101017.0 5.4 25.6 27.0
2017-Jun-19 02:00N 43°30' E 014°48'2222.2 030 / 171018.0 5.4 23.0 23.0
2017-Jun-19 01:00N 43°48' E 014°30'3518.7 010 / 221019.0 5.4 22.7 23.0
2017-Jun-18 23:06N 44°13' E 013°55'219.4
2017-Jun-18 23:00N 44°15' E 013°54'1019.6
2017-Jun-18 22:30N 44°23' E 013°46'1019.5
2017-Jun-18 22:00N 44°31' E 013°38'1019.4
2017-Jun-18 21:30N 44°39' E 013°31'1019.7
2017-Jun-18 21:00N 44°47' E 013°23'1019.5
2017-Jun-18 20:30N 44°55' E 013°15'1019.6
2017-Jun-18 20:00N 45°02' E 013°06'1019.9
2017-Jun-18 19:30N 45°09' E 012°56'1019.4
2017-Jun-18 19:00N 45°16' E 012°46'917.4
2017-Jun-18 18:30N 45°21' E 012°36'714.0
2017-Jun-18 18:00N 45°25' E 012°28'4 7.9
2017-Jun-18 17:30N 45°25' E 012°22'3 5.2
2017-Jun-18 17:01N 45°26' E 012°18'1 0.9
2017-Jun-18 16:26N 45°26' E 012°18'0 0.0
2017-Jun-18 15:56N 45°26' E 012°18'0 0.0
2017-Jun-18 15:26N 45°26' E 012°18'0 0.0
2017-Jun-18 14:47N 45°26' E 012°18'0 0.0
2017-Jun-18 13:56N 45°26' E 012°18'0 0.0
2017-Jun-18 13:26N 45°26' E 012°18'0 0.0
2017-Jun-18 12:59N 45°26' E 012°18'0 0.0
2017-Jun-18 12:29N 45°26' E 012°18'0 0.0
2017-Jun-18 11:59N 45°26' E 012°18'0 0.0
2017-Jun-18 11:29N 45°26' E 012°18'0 0.0
2017-Jun-18 10:56N 45°26' E 012°18'0 0.0
2017-Jun-18 10:29N 45°26' E 012°18'0 0.0
2017-Jun-18 09:59N 45°26' E 012°18'0 0.0
2017-Jun-18 09:29N 45°26' E 012°18'0 0.0
2017-Jun-18 08:59N 45°26' E 012°18'0 0.0
2017-Jun-18 08:29N 45°26' E 012°18'0 0.0
2017-Jun-18 07:59N 45°26' E 012°18'0 0.0
2017-Jun-18 07:29N 45°26' E 012°18'0 0.0
2017-Jun-18 06:59N 45°26' E 012°18'0 0.0
2017-Jun-18 06:26N 45°26' E 012°18'0 0.0
2017-Jun-18 05:59N 45°26' E 012°18'0 0.0
2017-Jun-18 05:29N 45°26' E 012°18'0 0.0
2017-Jun-18 04:59N 45°26' E 012°18'0 0.9
2017-Jun-18 04:30N 45°26' E 012°18'3 5.3
2017-Jun-18 04:00N 45°25' E 012°22'4 7.5
2017-Jun-18 03:30N 45°25' E 012°27'715.0
2017-Jun-18 03:01N 45°21' E 012°36'1019.0
2017-Jun-18 02:30N 45°15' E 012°48'1019.5
2017-Jun-18 02:00N 45°09' E 012°57'1019.8
2017-Jun-18 01:30N 45°03' E 013°08'1019.8
2017-Jun-18 01:01N 44°57' E 013°19'1019.6
2017-Jun-18 00:30N 44°49' E 013°28'1020.0
2017-Jun-18 00:00N 44°40' E 013°36'1019.9
2017-Jun-17 23:30N 44°32' E 013°43'1019.7
2017-Jun-17 23:00N 44°24' E 013°51'1019.8
2017-Jun-17 22:31N 44°16' E 013°59'1019.9
2017-Jun-17 22:00N 44°07' E 014°07'8026.6
2017-Jun-17 19:00N 43°06' E 015°18'8116.1 350 / 121013.010.8 25.0
2017-Jun-17 14:00N 42°36' E 017°00'140 7.8 050 / 171011.0 5.4 25.0 26.0
2017-Jun-16 20:00N 40°42' E 018°48'14317.9 320 / 101014.0 23.0
2017-Jun-16 12:00N 38°30' E 020°00'19813.1 280 / 81013.0 5.4 25.9 26.0
2017-Jun-15 20:55N 36°25' E 023°13'716.7
2017-Jun-15 20:31N 36°27' E 023°21'816.5
2017-Jun-15 20:01N 36°32' E 023°30'816.8
2017-Jun-15 19:31N 36°36' E 023°38'816.6
2017-Jun-15 19:01N 36°41' E 023°47'816.5
2017-Jun-15 18:31N 36°46' E 023°55'917.0
2017-Jun-15 18:00N 36°48' E 024°06'4316.0 180 / 51014.010.8 25.0 21.0
2017-Jun-15 15:19N 37°15' E 024°47'515.5
2017-Jun-15 15:00N 37°18' E 024°52'1615.9
2017-Jun-15 14:01N 37°27' E 025°09'714.7
2017-Jun-15 13:31N 37°28' E 025°18'1 1.8
2017-Jun-15 12:56N 37°28' E 025°19'0 0.0
2017-Jun-15 12:26N 37°28' E 025°19'0 0.0
2017-Jun-15 11:59N 37°28' E 025°19'0 0.0
2017-Jun-15 11:29N 37°28' E 025°19'0 0.0
2017-Jun-15 10:59N 37°28' E 025°19'0 0.0
2017-Jun-15 10:29N 37°28' E 025°19'0 0.0
2017-Jun-15 09:59N 37°28' E 025°19'0 0.0
2017-Jun-15 09:29N 37°28' E 025°19'0 0.0
2017-Jun-15 08:56N 37°28' E 025°19'0 0.0
2017-Jun-15 08:29N 37°28' E 025°19'0 0.0
2017-Jun-15 07:56N 37°28' E 025°19'0 0.0
2017-Jun-15 07:23N 37°28' E 025°19'0 0.0
2017-Jun-15 06:59N 37°28' E 025°19'0 0.0
2017-Jun-15 06:29N 37°28' E 025°19'0 0.0
2017-Jun-15 05:59N 37°28' E 025°19'0 0.0
2017-Jun-15 05:29N 37°28' E 025°19'0 0.0
2017-Jun-15 04:59N 37°28' E 025°19'0 0.0
2017-Jun-15 04:30N 37°28' E 025°19'1 2.7
2017-Jun-15 04:00N 37°28' E 025°18'3 6.5
2017-Jun-15 03:30N 37°27' E 025°14'4 8.4
2017-Jun-15 03:00N 37°25' E 025°09'5 9.0
2017-Jun-15 02:30N 37°22' E 025°06'4 8.7
2017-Jun-15 02:00N 37°18' E 025°03'4 8.4
2017-Jun-15 01:30N 37°15' E 024°59'4 8.6
2017-Jun-15 01:00N 37°11' E 024°57'4 8.7
2017-Jun-15 00:30N 37°07' E 024°56'197 7.4
2017-Jun-13 22:00N 37°06' E 020°48'614.1 300 / 131013.0 5.4 22.7 23.0
2017-Jun-13 21:34N 37°11' E 020°44'120.1
2017-Jun-13 21:30N 37°12' E 020°43'1119.9
2017-Jun-13 20:57N 37°22' E 020°37'1020.0
2017-Jun-13 20:26N 37°31' E 020°31'920.1
2017-Jun-13 20:01N 37°38' E 020°26'1020.1
2017-Jun-13 19:30N 37°47' E 020°20'1019.8
2017-Jun-13 19:01N 37°56' E 020°14'4243.6
2017-Jun-13 19:00N 38°00' E 020°12'612.7 360 / 121013.0 23.0
2017-Jun-13 18:30N 38°06' E 020°14'1020.0
2017-Jun-13 18:00N 38°16' E 020°14'2219.8
2017-Jun-13 16:55N 38°38' E 020°17'  
Track history (hours):
 
Tides and Currents Weather Stations Pressure Air Temp Water Temp Dewpoint Dewpoint Depression Visibility Wind Speed Wind Dir Waves Ship Positions

Norwegian Star

Operator: Norwegian Cruise Line

Last reported at 2017-Jun-22 16:30 UTC. Time now 2017-Jun-22 16:38 UTC.
Position N 37°28' E 023°43'.

Type: Passenger vessel. MMSI: 311082000.

Date/timePositionNaut miles runAvg speedWind from/ knotsBaromVisibWave heightAir tempDewpointWater temp
2017-Jun-22 16:30N 37°28' E 023°43'816.0
2017-Jun-22 16:00N 37°36' E 023°43'816.4
2017-Jun-22 15:30N 37°44' E 023°40'816.0
2017-Jun-22 15:00N 37°51' E 023°36'5 9.8
2017-Jun-22 14:30N 37°56' E 023°37'1 0.7
2017-Jun-22 13:28N 37°56' E 023°38'0 0.0
2017-Jun-22 12:58N 37°56' E 023°38'0 0.0
2017-Jun-22 12:28N 37°56' E 023°38'0 0.0
2017-Jun-22 11:58N 37°56' E 023°38'0 0.0
2017-Jun-22 11:28N 37°56' E 023°38'0 0.0
2017-Jun-22 10:58N 37°56' E 023°38'0 0.0
2017-Jun-22 10:28N 37°56' E 023°38'0 0.0
2017-Jun-22 09:58N 37°56' E 023°38'0 0.0
2017-Jun-22 09:28N 37°56' E 023°38'0 0.0
2017-Jun-22 08:58N 37°56' E 023°38'0 0.0
2017-Jun-22 08:28N 37°56' E 023°38'0 0.0
2017-Jun-22 07:58N 37°56' E 023°38'0 0.0
2017-Jun-22 07:25N 37°56' E 023°38'0 0.0
2017-Jun-22 06:58N 37°56' E 023°38'0 0.0
2017-Jun-22 06:28N 37°56' E 023°38'0 0.0
2017-Jun-22 05:58N 37°56' E 023°38'0 0.0
2017-Jun-22 05:25N 37°56' E 023°38'0 0.0
2017-Jun-22 04:58N 37°56' E 023°38'0 0.0
2017-Jun-22 04:28N 37°56' E 023°38'0 0.0
2017-Jun-22 03:59N 37°56' E 023°38'1 3.0
2017-Jun-22 03:30N 37°56' E 023°37'1 2.1
2017-Jun-22 03:00N 37°54' E 023°37'714.0
2017-Jun-22 02:30N 37°48' E 023°40'918.6
2017-Jun-22 02:00N 37°40' E 023°45'1019.6
2017-Jun-22 01:30N 37°30' E 023°44'1019.2
2017-Jun-22 01:00N 37°20' E 023°42'918.8
2017-Jun-22 00:30N 37°11' E 023°39'1119.1
2017-Jun-21 23:55N 37°01' E 023°34'1119.0
2017-Jun-21 23:20N 36°50' E 023°30'10016.3
2017-Jun-21 17:11N 36°44' E 021°25'421.0
2017-Jun-21 17:00N 36°47' E 021°23'1620.8
2017-Jun-21 16:14N 37°02' E 021°17'621.2
2017-Jun-21 15:58N 37°08' E 021°17'1010.4
2017-Jun-21 15:00N 37°18' E 021°18'24 6.0 030 / 221014.0 5.4 24.4 25.0
2017-Jun-21 11:00N 37°42' E 021°18'13311.4 280 1013.027.0 25.0 20.0
2017-Jun-20 23:15N 39°21' E 019°24'521.2
2017-Jun-20 23:00N 39°26' E 019°21'4321.6
2017-Jun-20 21:00N 40°06' E 019°00'9420.4 270 / 61012.0 22.0
2017-Jun-20 16:22N 41°39' E 018°42'1120.5
2017-Jun-20 15:51N 41°50' E 018°41'1112.5
2017-Jun-20 15:00N 42°00' E 018°36'190 5.1 260 / 101017.0 5.4 25.6 27.0
2017-Jun-19 02:00N 43°30' E 014°48'2222.2 030 / 171018.0 5.4 23.0 23.0
2017-Jun-19 01:00N 43°48' E 014°30'3518.7 010 / 221019.0 5.4 22.7 23.0
2017-Jun-18 23:06N 44°13' E 013°55'219.4
2017-Jun-18 23:00N 44°15' E 013°54'1019.6
2017-Jun-18 22:30N 44°23' E 013°46'1019.5
2017-Jun-18 22:00N 44°31' E 013°38'1019.4
2017-Jun-18 21:30N 44°39' E 013°31'1019.7
2017-Jun-18 21:00N 44°47' E 013°23'1019.5
2017-Jun-18 20:30N 44°55' E 013°15'1019.6
2017-Jun-18 20:00N 45°02' E 013°06'1019.9
2017-Jun-18 19:30N 45°09' E 012°56'1019.4
2017-Jun-18 19:00N 45°16' E 012°46'917.4
2017-Jun-18 18:30N 45°21' E 012°36'714.0
2017-Jun-18 18:00N 45°25' E 012°28'4 7.9
2017-Jun-18 17:30N 45°25' E 012°22'3 5.2
2017-Jun-18 17:01N 45°26' E 012°18'1 0.9
2017-Jun-18 16:26N 45°26' E 012°18'0 0.0
2017-Jun-18 15:56N 45°26' E 012°18'0 0.0
2017-Jun-18 15:26N 45°26' E 012°18'0 0.0
2017-Jun-18 14:47N 45°26' E 012°18'0 0.0
2017-Jun-18 13:56N 45°26' E 012°18'0 0.0
2017-Jun-18 13:26N 45°26' E 012°18'0 0.0
2017-Jun-18 12:59N 45°26' E 012°18'0 0.0
2017-Jun-18 12:29N 45°26' E 012°18'0 0.0
2017-Jun-18 11:59N 45°26' E 012°18'0 0.0
2017-Jun-18 11:29N 45°26' E 012°18'0 0.0
2017-Jun-18 10:56N 45°26' E 012°18'0 0.0
2017-Jun-18 10:29N 45°26' E 012°18'0 0.0
2017-Jun-18 09:59N 45°26' E 012°18'0 0.0
2017-Jun-18 09:29N 45°26' E 012°18'0 0.0
2017-Jun-18 08:59N 45°26' E 012°18'0 0.0
2017-Jun-18 08:29N 45°26' E 012°18'0 0.0
2017-Jun-18 07:59N 45°26' E 012°18'0 0.0
2017-Jun-18 07:29N 45°26' E 012°18'0 0.0
2017-Jun-18 06:59N 45°26' E 012°18'0 0.0
2017-Jun-18 06:26N 45°26' E 012°18'0 0.0
2017-Jun-18 05:59N 45°26' E 012°18'0 0.0
2017-Jun-18 05:29N 45°26' E 012°18'0 0.0
2017-Jun-18 04:59N 45°26' E 012°18'0 0.9
2017-Jun-18 04:30N 45°26' E 012°18'3 5.3
2017-Jun-18 04:00N 45°25' E 012°22'4 7.5
2017-Jun-18 03:30N 45°25' E 012°27'715.0
2017-Jun-18 03:01N 45°21' E 012°36'1019.0
2017-Jun-18 02:30N 45°15' E 012°48'1019.5
2017-Jun-18 02:00N 45°09' E 012°57'1019.8
2017-Jun-18 01:30N 45°03' E 013°08'1019.8
2017-Jun-18 01:01N 44°57' E 013°19'1019.6
2017-Jun-18 00:30N 44°49' E 013°28'1020.0
2017-Jun-18 00:00N 44°40' E 013°36'1019.9
2017-Jun-17 23:30N 44°32' E 013°43'1019.7
2017-Jun-17 23:00N 44°24' E 013°51'1019.8
2017-Jun-17 22:31N 44°16' E 013°59'1019.9
2017-Jun-17 22:00N 44°07' E 014°07'8026.6
2017-Jun-17 19:00N 43°06' E 015°18'8116.1 350 / 121013.010.8 25.0
2017-Jun-17 14:00N 42°36' E 017°00'140 7.8 050 / 171011.0 5.4 25.0 26.0
2017-Jun-16 20:00N 40°42' E 018°48'14317.9 320 / 101014.0 23.0
2017-Jun-16 12:00N 38°30' E 020°00'19813.1 280 / 81013.0 5.4 25.9 26.0
2017-Jun-15 20:55N 36°25' E 023°13'716.7
2017-Jun-15 20:31N 36°27' E 023°21'816.5
2017-Jun-15 20:01N 36°32' E 023°30'816.8
2017-Jun-15 19:31N 36°36' E 023°38'816.6
2017-Jun-15 19:01N 36°41' E 023°47'816.5
2017-Jun-15 18:31N 36°46' E 023°55'917.0
2017-Jun-15 18:00N 36°48' E 024°06'4316.0 180 / 51014.010.8 25.0 21.0
2017-Jun-15 15:19N 37°15' E 024°47'515.5
2017-Jun-15 15:00N 37°18' E 024°52'1615.9
2017-Jun-15 14:01N 37°27' E 025°09'714.7
2017-Jun-15 13:31N 37°28' E 025°18'1 1.8
2017-Jun-15 12:56N 37°28' E 025°19'0 0.0
2017-Jun-15 12:26N 37°28' E 025°19'0 0.0
2017-Jun-15 11:59N 37°28' E 025°19'0 0.0
2017-Jun-15 11:29N 37°28' E 025°19'0 0.0
2017-Jun-15 10:59N 37°28' E 025°19'0 0.0
2017-Jun-15 10:29N 37°28' E 025°19'0 0.0
2017-Jun-15 09:59N 37°28' E 025°19'0 0.0
2017-Jun-15 09:29N 37°28' E 025°19'0 0.0
2017-Jun-15 08:56N 37°28' E 025°19'0 0.0
2017-Jun-15 08:29N 37°28' E 025°19'0 0.0
2017-Jun-15 07:56N 37°28' E 025°19'0 0.0
2017-Jun-15 07:23N 37°28' E 025°19'0 0.0
2017-Jun-15 06:59N 37°28' E 025°19'0 0.0
2017-Jun-15 06:29N 37°28' E 025°19'0 0.0
2017-Jun-15 05:59N 37°28' E 025°19'0 0.0
2017-Jun-15 05:29N 37°28' E 025°19'0 0.0
2017-Jun-15 04:59N 37°28' E 025°19'0 0.0
2017-Jun-15 04:30N 37°28' E 025°19'1 2.7
2017-Jun-15 04:00N 37°28' E 025°18'3 6.5
2017-Jun-15 03:30N 37°27' E 025°14'4 8.4
2017-Jun-15 03:00N 37°25' E 025°09'5 9.0
2017-Jun-15 02:30N 37°22' E 025°06'4 8.7
2017-Jun-15 02:00N 37°18' E 025°03'4 8.4
2017-Jun-15 01:30N 37°15' E 024°59'4 8.6
2017-Jun-15 01:00N 37°11' E 024°57'4 8.7
2017-Jun-15 00:30N 37°07' E 024°56'197 7.4
2017-Jun-13 22:00N 37°06' E 020°48'614.1 300 / 131013.0 5.4 22.7 23.0
2017-Jun-13 21:34N 37°11' E 020°44'120.1
2017-Jun-13 21:30N 37°12' E 020°43'1119.9
2017-Jun-13 20:57N 37°22' E 020°37'1020.0
2017-Jun-13 20:26N 37°31' E 020°31'920.1
2017-Jun-13 20:01N 37°38' E 020°26'1020.1
2017-Jun-13 19:30N 37°47' E 020°20'1019.8
2017-Jun-13 19:01N 37°56' E 020°14'4243.6
2017-Jun-13 19:00N 38°00' E 020°12'612.7 360 / 121013.0 23.0
2017-Jun-13 18:30N 38°06' E 020°14'1020.0
2017-Jun-13 18:00N 38°16' E 020°14'2219.8
2017-Jun-13 16:55N 38°38' E 020°17'  

Dump ship's entire track history